createdAt,value
2023-04-20T00:02:18.222Z,28.27
2023-04-20T00:07:41.807Z,28.34
2023-04-20T00:13:03.631Z,28.47
2023-04-20T00:18:25.598Z,28.19
2023-04-20T00:23:47.980Z,28.22
2023-04-20T00:29:09.917Z,28.72
2023-04-20T00:34:31.678Z,28.50
2023-04-20T00:39:53.407Z,28.73
2023-04-20T00:45:15.254Z,28.33
2023-04-20T00:50:38.852Z,28.57
2023-04-20T00:56:00.957Z,28.35
2023-04-20T01:01:22.892Z,28.45
2023-04-20T01:06:44.739Z,28.83
2023-04-20T01:12:07.598Z,28.50
2023-04-20T01:17:29.775Z,28.73
2023-04-20T01:22:54.574Z,28.55
2023-04-20T01:28:16.477Z,28.62
2023-04-20T01:33:38.882Z,28.34
2023-04-20T01:39:01.527Z,28.59
2023-04-20T01:44:23.292Z,28.73
2023-04-20T01:49:45.362Z,28.20
2023-04-20T01:55:07.521Z,28.69
2023-04-20T02:00:29.672Z,28.49
2023-04-20T02:05:51.486Z,28.44
2023-04-20T02:11:13.307Z,28.22
2023-04-20T02:16:35.877Z,27.83
2023-04-20T02:21:57.690Z,28.14
2023-04-20T02:27:19.453Z,28.19
2023-04-20T02:32:41.451Z,27.88
2023-04-20T02:38:03.417Z,27.67
2023-04-20T02:43:25.327Z,27.59
2023-04-20T02:48:47.184Z,27.96
2023-04-20T02:54:08.994Z,27.98
2023-04-20T02:59:30.786Z,27.59
2023-04-20T03:04:52.828Z,27.91
2023-04-20T03:10:14.897Z,27.50
2023-04-20T03:15:36.741Z,27.37
2023-04-20T03:20:58.526Z,27.87
2023-04-20T03:26:20.758Z,27.38
2023-04-20T03:31:42.783Z,27.34
2023-04-20T03:37:04.954Z,27.28
2023-04-20T03:42:26.772Z,27.20
2023-04-20T03:47:48.584Z,27.20
2023-04-20T03:53:10.571Z,27.26
2023-04-20T03:58:32.351Z,27.48
2023-04-20T04:03:54.571Z,27.41
2023-04-20T04:09:16.774Z,27.32
2023-04-20T04:14:38.834Z,26.89
2023-04-20T04:20:00.606Z,27.06
2023-04-20T04:25:23.526Z,26.91
2023-04-20T04:30:45.701Z,27.35
2023-04-20T04:36:07.876Z,27.31
2023-04-20T04:41:29.668Z,26.93
2023-04-20T04:46:51.514Z,26.97
2023-04-20T04:52:13.712Z,27.20
2023-04-20T04:57:36.402Z,27.17
2023-04-20T05:02:58.397Z,26.93
2023-04-20T05:08:21.780Z,27.01
2023-04-20T05:13:43.640Z,26.86
2023-04-20T05:19:05.668Z,26.31
2023-04-20T05:24:27.539Z,26.03
2023-04-20T05:29:49.486Z,25.66
2023-04-20T05:35:11.420Z,25.89
2023-04-20T05:40:37.507Z,25.81
2023-04-20T05:45:59.307Z,25.67
2023-04-20T05:51:22.314Z,26.17
2023-04-20T05:56:44.105Z,25.67
2023-04-20T06:02:06.377Z,26.20
2023-04-20T06:07:28.185Z,26.17
2023-04-20T06:12:50.039Z,26.38
2023-04-20T06:18:11.862Z,26.02
2023-04-20T06:23:33.677Z,26.17
2023-04-20T06:28:55.455Z,26.45
2023-04-20T06:34:17.329Z,26.43
2023-04-20T06:39:39.294Z,26.84
2023-04-20T06:45:01.203Z,27.00
2023-04-20T06:50:22.955Z,27.17
2023-04-20T06:55:44.824Z,27.19
2023-04-20T07:01:06.771Z,26.98
2023-04-20T07:06:28.851Z,27.52
2023-04-20T07:11:51.027Z,27.31
2023-04-20T07:17:12.777Z,27.52
2023-04-20T07:22:40.536Z,27.76
2023-04-20T07:28:02.395Z,27.53
2023-04-20T07:33:24.505Z,27.87
2023-04-20T07:38:46.295Z,27.63
2023-04-20T07:44:08.102Z,27.62
2023-04-20T07:49:30.147Z,27.87
2023-04-20T07:54:54.033Z,28.05
2023-04-20T08:00:16.291Z,28.11
2023-04-20T08:05:39.371Z,28.20
2023-04-20T08:11:01.302Z,28.17
2023-04-20T08:16:24.073Z,27.97
2023-04-20T08:21:45.944Z,27.91
2023-04-20T08:27:09.467Z,28.24
2023-04-20T08:32:31.548Z,27.96
2023-04-20T08:37:53.357Z,27.91
2023-04-20T08:43:15.135Z,28.03
2023-04-20T08:48:38.181Z,27.78
2023-04-20T08:54:06.232Z,27.73
2023-04-20T08:59:28.253Z,27.35
2023-04-20T09:05:00.881Z,27.31
2023-04-20T09:10:24.467Z,27.49
2023-04-20T09:15:46.211Z,27.69
2023-04-20T09:21:10.004Z,27.56
2023-04-20T09:26:33.778Z,27.65
2023-04-20T09:31:55.908Z,27.34
2023-04-20T09:37:18.238Z,27.34
2023-04-20T09:42:42.028Z,27.69
2023-04-20T09:48:06.707Z,27.54
2023-04-20T09:53:28.685Z,27.66
2023-04-20T09:58:51.949Z,27.65
2023-04-20T10:04:15.081Z,27.77
2023-04-20T10:09:38.051Z,28.10
2023-04-20T10:15:01.502Z,27.86
2023-04-20T10:20:25.990Z,28.29
2023-04-20T10:26:01.961Z,28.17
2023-04-20T10:31:25.409Z,28.35
2023-04-20T10:36:47.525Z,28.22
2023-04-20T10:42:09.929Z,28.34
2023-04-20T10:47:34.416Z,28.42
2023-04-20T10:52:56.380Z,28.51
2023-04-20T10:58:25.127Z,28.46
2023-04-20T11:03:53.821Z,28.56
2023-04-20T11:09:25.012Z,28.63
2023-04-20T11:14:55.099Z,28.37
2023-04-20T11:20:18.736Z,28.54
2023-04-20T11:25:50.879Z,28.27
2023-04-20T11:31:19.078Z,28.67
2023-04-20T11:36:41.829Z,28.55
2023-04-20T11:42:04.638Z,28.62
2023-04-20T11:47:26.674Z,28.52
2023-04-20T11:52:49.095Z,28.24
2023-04-20T11:58:11.185Z,28.27
2023-04-20T12:03:33.382Z,28.37
2023-04-20T12:08:56.531Z,28.66
2023-04-20T12:14:18.326Z,28.52
2023-04-20T12:19:40.139Z,28.88
2023-04-20T12:25:02.111Z,28.49
2023-04-20T12:30:24.190Z,28.71
2023-04-20T12:35:46.028Z,28.62
2023-04-20T12:41:08.194Z,29.00
2023-04-20T12:46:30.137Z,28.92
2023-04-20T12:51:52.255Z,28.77
2023-04-20T12:57:14.120Z,29.33
2023-04-20T13:02:36.262Z,29.01
2023-04-20T13:07:58.195Z,29.02
2023-04-20T13:13:20.002Z,29.27
2023-04-20T13:18:41.881Z,29.13
2023-04-20T13:24:03.900Z,29.44
2023-04-20T13:29:26.523Z,29.41
2023-04-20T13:34:48.316Z,29.60
2023-04-20T13:40:10.491Z,29.51
2023-04-20T13:45:32.401Z,29.35
2023-04-20T13:50:54.491Z,29.77
2023-04-20T13:56:16.964Z,29.86
2023-04-20T14:01:39.268Z,29.86
2023-04-20T14:07:01.097Z,29.79
2023-04-20T14:12:22.941Z,29.94
2023-04-20T14:17:44.774Z,29.54
2023-04-20T14:23:09.300Z,29.49
2023-04-20T14:28:33.369Z,28.74
2023-04-20T14:33:55.384Z,28.52
2023-04-20T14:39:20.180Z,28.63
2023-04-20T14:44:42.101Z,28.27
2023-04-20T14:50:04.819Z,28.56
2023-04-20T14:55:26.778Z,28.57
2023-04-20T15:00:52.203Z,28.72
2023-04-20T15:06:14.082Z,29.11
2023-04-20T15:11:36.052Z,28.86
2023-04-20T15:16:57.930Z,29.13
2023-04-20T15:22:19.704Z,29.30
2023-04-20T15:27:41.555Z,29.55
2023-04-20T15:33:04.357Z,29.47
2023-04-20T15:38:27.304Z,29.85
2023-04-20T15:43:49.212Z,29.85
2023-04-20T15:49:11.145Z,29.57
2023-04-20T15:54:33.211Z,29.86
2023-04-20T15:59:55.229Z,29.16
2023-04-20T16:05:17.281Z,29.22
2023-04-20T16:10:39.145Z,28.96
2023-04-20T16:16:01.020Z,29.32
2023-04-20T16:21:23.651Z,28.96
2023-04-20T16:26:46.553Z,28.82
2023-04-20T16:32:08.470Z,28.80
2023-04-20T16:37:33.741Z,29.11
2023-04-20T16:42:55.708Z,29.05
2023-04-20T16:48:17.963Z,28.79
2023-04-20T16:53:39.749Z,29.00
2023-04-20T16:59:01.491Z,29.49
2023-04-20T17:04:23.649Z,29.60
2023-04-20T17:09:45.607Z,29.69
2023-04-20T17:15:08.137Z,29.87
2023-04-20T17:20:29.964Z,30.13
2023-04-20T17:25:51.748Z,30.02
2023-04-20T17:31:13.607Z,30.08
2023-04-20T17:36:35.482Z,30.64
2023-04-20T17:41:59.913Z,30.62
2023-04-20T17:47:21.710Z,31.35
2023-04-20T17:52:43.622Z,31.48
2023-04-20T17:58:05.514Z,31.84
2023-04-20T18:03:28.502Z,32.34
2023-04-20T18:08:50.405Z,32.04
2023-04-20T18:14:12.260Z,32.39
2023-04-20T18:19:37.174Z,32.41
2023-04-20T18:24:59.032Z,32.65
2023-04-20T18:30:20.901Z,32.46
2023-04-20T18:35:43.810Z,32.35
2023-04-20T18:41:05.720Z,32.11
2023-04-20T18:46:27.517Z,32.01
2023-04-20T18:51:49.341Z,31.80
2023-04-20T18:57:11.260Z,31.84
2023-04-20T19:02:33.518Z,31.93
2023-04-20T19:07:55.585Z,31.88
2023-04-20T19:13:18.046Z,31.84
2023-04-20T19:18:40.168Z,32.19
2023-04-20T19:24:02.068Z,31.90
2023-04-20T19:29:23.982Z,32.01
2023-04-20T19:34:45.816Z,32.04
2023-04-20T19:40:08.800Z,31.83
2023-04-20T19:45:30.832Z,32.19
2023-04-20T19:50:52.885Z,31.96
2023-04-20T19:56:14.661Z,31.73
2023-04-20T20:01:36.631Z,32.01
2023-04-20T20:06:59.380Z,32.26
2023-04-20T20:12:21.184Z,32.25
2023-04-20T20:17:45.438Z,32.54
2023-04-20T20:23:07.228Z,32.54
2023-04-20T20:28:29.574Z,32.44
2023-04-20T20:33:52.296Z,32.37
2023-04-20T20:39:14.552Z,32.09
2023-04-20T20:44:39.147Z,32.50
2023-04-20T20:50:00.977Z,32.11
2023-04-20T20:55:23.188Z,32.04
2023-04-20T21:00:47.258Z,32.41
2023-04-20T21:06:09.159Z,32.09
2023-04-20T21:11:31.042Z,32.04
2023-04-20T21:16:52.884Z,32.19
2023-04-20T21:22:14.762Z,32.18
2023-04-20T21:27:36.837Z,32.02
2023-04-20T21:32:58.677Z,32.13
2023-04-20T21:38:20.652Z,32.28
2023-04-20T21:43:43.543Z,32.59
2023-04-20T21:49:05.641Z,32.15
2023-04-20T21:54:27.539Z,32.31
2023-04-20T21:59:49.324Z,32.46
2023-04-20T22:05:11.771Z,32.24
2023-04-20T22:10:33.770Z,32.60
2023-04-20T22:15:55.902Z,32.31
2023-04-20T22:21:17.746Z,32.11
2023-04-20T22:26:39.599Z,32.24
2023-04-20T22:32:01.441Z,32.42
2023-04-20T22:37:23.272Z,32.53
2023-04-20T22:42:45.464Z,32.14
2023-04-20T22:48:07.924Z,32.11
2023-04-20T22:53:30.425Z,32.41
2023-04-20T22:58:52.320Z,32.23
2023-04-20T23:04:14.374Z,32.34
2023-04-20T23:09:40.140Z,32.24
2023-04-20T23:15:02.134Z,32.14
2023-04-20T23:20:24.381Z,32.13
2023-04-20T23:25:46.243Z,32.53
2023-04-20T23:31:08.058Z,32.52
2023-04-20T23:36:29.919Z,32.50
2023-04-20T23:41:51.780Z,32.48
2023-04-20T23:47:14.792Z,32.27
2023-04-20T23:52:36.677Z,32.51
2023-04-20T23:58:01.067Z,32.49
